Dai25myoujinmaru — JL6201 — position and weather

sailwx.info

Track history (hours):
 
Tides and Currents Weather Stations Pressure Air Temp Water Temp Dewpoint Dewpoint Depression Visibility Wind Speed Wind Dir Waves Ship Positions

Dai25myoujinmaru

Last reported at 2014-Jul-25 10:32 UTC. Time now 2014-Jul-30 21:23 UTC.
Position N 34°49' E 139°15'.

Length 88 m; draft 5.5 m.

Type: Tanker. MMSI: 431500272.

Date/timePositionNaut miles runAvg speedWind from/ knotsBaromVisibWave heightAir tempDewpointWater temp
2014-Jul-25 10:32N 34°49' E 139°15'1210.6
2014-Jul-25 09:26N 34°57' E 139°26'1011.1
2014-Jul-25 08:33N 35°03' E 139°36'1211.9
2014-Jul-25 07:33N 35°12' E 139°45'1211.6
2014-Jul-25 06:33N 35°23' E 139°42'1212.0
2014-Jul-25 05:33N 35°30' E 139°54'6 6.4
2014-Jul-25 04:33N 35°30' E 140°02'0 0.0
2014-Jul-25 03:34N 35°30' E 140°02'0 0.0
2014-Jul-25 02:33N 35°30' E 140°02'0 0.0
2014-Jul-25 01:33N 35°30' E 140°02'0 0.4
2014-Jul-25 00:33N 35°30' E 140°01'3 2.7
2014-Jul-24 23:33N 35°32' E 139°60'0 0.0
2014-Jul-24 22:32N 35°32' E 139°60'2 1.7
2014-Jul-24 21:33N 35°34' E 140°01'4 4.3
2014-Jul-24 20:34N 35°36' E 140°06'0 0.0
2014-Jul-24 19:34N 35°36' E 140°06'0 0.0
2014-Jul-24 18:34N 35°36' E 140°06'0 0.0
2014-Jul-24 17:34N 35°36' E 140°06'0 0.0
2014-Jul-24 16:33N 35°36' E 140°06'0 0.0
2014-Jul-24 15:34N 35°36' E 140°06'0 0.0
2014-Jul-24 14:34N 35°36' E 140°06'0 0.0
2014-Jul-24 13:34N 35°36' E 140°06'0 0.0
2014-Jul-24 12:33N 35°36' E 140°06'0 0.0
2014-Jul-24 11:34N 35°36' E 140°06'0 0.0
2014-Jul-24 10:33N 35°36' E 140°06'0 0.0
2014-Jul-24 09:33N 35°36' E 140°06'0 0.0
2014-Jul-24 08:33N 35°36' E 140°06'0 0.0
2014-Jul-24 07:33N 35°36' E 140°06'0 0.0
2014-Jul-24 06:34N 35°36' E 140°06'0 0.0
2014-Jul-24 05:34N 35°36' E 140°06'0 0.0
2014-Jul-24 04:33N 35°36' E 140°06'0 0.0
2014-Jul-24 03:34N 35°36' E 140°06'0 0.0
2014-Jul-24 02:34N 35°36' E 140°06'0 0.0
2014-Jul-24 01:33N 35°36' E 140°06'0 0.0
2014-Jul-24 00:33N 35°36' E 140°06'0 0.0
2014-Jul-23 23:34N 35°36' E 140°06'0 0.0
2014-Jul-23 22:33N 35°36' E 140°06'0 0.0
2014-Jul-23 21:33N 35°36' E 140°06'0 0.0
2014-Jul-23 20:33N 35°36' E 140°06'0 0.0
2014-Jul-23 19:34N 35°36' E 140°06'0 0.0
2014-Jul-23 18:33N 35°36' E 140°06'0 0.0
2014-Jul-23 17:34N 35°36' E 140°06'0 0.0
2014-Jul-23 16:34N 35°36' E 140°06'0 0.0
2014-Jul-23 15:33N 35°36' E 140°06'0 0.0
2014-Jul-23 14:33N 35°36' E 140°06'0 0.0
2014-Jul-23 13:34N 35°36' E 140°06'0 0.0
2014-Jul-23 12:33N 35°36' E 140°06'0 0.0
2014-Jul-23 11:33N 35°36' E 140°06'0 0.0
2014-Jul-23 10:33N 35°36' E 140°06'0 0.0
2014-Jul-23 09:33N 35°36' E 140°06'0 0.0
2014-Jul-23 08:34N 35°36' E 140°06'7 7.3
2014-Jul-23 07:33N 35°31' E 139°59'0 0.0
2014-Jul-23 06:33N 35°31' E 139°59'0 0.1
2014-Jul-23 05:33N 35°31' E 139°59'0 0.0
2014-Jul-23 04:33N 35°31' E 139°59'0 0.0
2014-Jul-23 03:33N 35°31' E 139°59'0 0.0
2014-Jul-23 02:34N 35°31' E 139°59'0 0.1
2014-Jul-23 01:33N 35°31' E 139°59'0 0.0
2014-Jul-23 00:34N 35°31' E 139°59'0 0.0
2014-Jul-22 23:33N 35°31' E 139°59'0 0.0
2014-Jul-22 22:33N 35°31' E 139°59'0 0.0
2014-Jul-22 21:33N 35°31' E 139°59'0 0.0
2014-Jul-22 20:34N 35°31' E 139°59'0 0.0
2014-Jul-22 19:34N 35°31' E 139°59'0 0.0
2014-Jul-22 18:34N 35°31' E 139°59'0 0.0
2014-Jul-22 17:33N 35°31' E 139°59'0 0.0
2014-Jul-22 16:33N 35°31' E 139°59'0 0.0
2014-Jul-22 15:33N 35°31' E 139°59'0 0.0
2014-Jul-22 14:33N 35°31' E 139°59'0 0.1
2014-Jul-22 13:33N 35°31' E 139°59'0 0.0
2014-Jul-22 12:33N 35°31' E 139°59'1 0.7
2014-Jul-22 11:34N 35°31' E 139°58'1312.9
2014-Jul-22 10:34N 35°23' E 139°46'1312.6
2014-Jul-22 09:33N 35°10' E 139°46'1313.3
2014-Jul-22 08:33N 34°60' E 139°37'1515.0
2014-Jul-22 07:33N 34°51' E 139°21'7 0.4
2014-Jul-21 14:14N 34°48' E 139°14'1810.7
2014-Jul-21 12:31N 34°60' E 139°31'1111.8
2014-Jul-21 11:33N 35°07' E 139°42'1111.1
2014-Jul-21 10:33N 35°18' E 139°44'1010.1
2014-Jul-21 09:33N 35°27' E 139°48'1111.1
2014-Jul-21 08:33N 35°30' E 140°01'1 0.9
2014-Jul-21 07:33N 35°30' E 140°02'0 0.0
2014-Jul-21 06:33N 35°30' E 140°02'2 1.6
2014-Jul-21 05:33N 35°30' E 139°60'1 1.4
2014-Jul-21 04:33N 35°31' E 139°58'0 0.0
2014-Jul-21 03:33N 35°31' E 139°58'0 0.0
2014-Jul-21 02:34N 35°31' E 139°58'0 0.0
2014-Jul-21 01:34N 35°31' E 139°58'4 3.6
2014-Jul-21 00:33N 35°29' E 139°55'1212.0
2014-Jul-20 23:34N 35°20' E 139°45'1212.1
2014-Jul-20 22:33N 35°08' E 139°45'1313.1
2014-Jul-20 21:34N 34°59' E 139°35'6414.3
2014-Jul-20 17:04N 34°26' E 138°28'  
Track history (hours):
 
Tides and Currents Weather Stations Pressure Air Temp Water Temp Dewpoint Dewpoint Depression Visibility Wind Speed Wind Dir Waves Ship Positions

Dai25myoujinmaru

Last reported at 2014-Jul-25 10:32 UTC. Time now 2014-Jul-30 21:23 UTC.
Position N 34°49' E 139°15'.

Length 88 m; draft 5.5 m.

Type: Tanker. MMSI: 431500272.

Date/timePositionNaut miles runAvg speedWind from/ knotsBaromVisibWave heightAir tempDewpointWater temp
2014-Jul-25 10:32N 34°49' E 139°15'1210.6
2014-Jul-25 09:26N 34°57' E 139°26'1011.1
2014-Jul-25 08:33N 35°03' E 139°36'1211.9
2014-Jul-25 07:33N 35°12' E 139°45'1211.6
2014-Jul-25 06:33N 35°23' E 139°42'1212.0
2014-Jul-25 05:33N 35°30' E 139°54'6 6.4
2014-Jul-25 04:33N 35°30' E 140°02'0 0.0
2014-Jul-25 03:34N 35°30' E 140°02'0 0.0
2014-Jul-25 02:33N 35°30' E 140°02'0 0.0
2014-Jul-25 01:33N 35°30' E 140°02'0 0.4
2014-Jul-25 00:33N 35°30' E 140°01'3 2.7
2014-Jul-24 23:33N 35°32' E 139°60'0 0.0
2014-Jul-24 22:32N 35°32' E 139°60'2 1.7
2014-Jul-24 21:33N 35°34' E 140°01'4 4.3
2014-Jul-24 20:34N 35°36' E 140°06'0 0.0
2014-Jul-24 19:34N 35°36' E 140°06'0 0.0
2014-Jul-24 18:34N 35°36' E 140°06'0 0.0
2014-Jul-24 17:34N 35°36' E 140°06'0 0.0
2014-Jul-24 16:33N 35°36' E 140°06'0 0.0
2014-Jul-24 15:34N 35°36' E 140°06'0 0.0
2014-Jul-24 14:34N 35°36' E 140°06'0 0.0
2014-Jul-24 13:34N 35°36' E 140°06'0 0.0
2014-Jul-24 12:33N 35°36' E 140°06'0 0.0
2014-Jul-24 11:34N 35°36' E 140°06'0 0.0
2014-Jul-24 10:33N 35°36' E 140°06'0 0.0
2014-Jul-24 09:33N 35°36' E 140°06'0 0.0
2014-Jul-24 08:33N 35°36' E 140°06'0 0.0
2014-Jul-24 07:33N 35°36' E 140°06'0 0.0
2014-Jul-24 06:34N 35°36' E 140°06'0 0.0
2014-Jul-24 05:34N 35°36' E 140°06'0 0.0
2014-Jul-24 04:33N 35°36' E 140°06'0 0.0
2014-Jul-24 03:34N 35°36' E 140°06'0 0.0
2014-Jul-24 02:34N 35°36' E 140°06'0 0.0
2014-Jul-24 01:33N 35°36' E 140°06'0 0.0
2014-Jul-24 00:33N 35°36' E 140°06'0 0.0
2014-Jul-23 23:34N 35°36' E 140°06'0 0.0
2014-Jul-23 22:33N 35°36' E 140°06'0 0.0
2014-Jul-23 21:33N 35°36' E 140°06'0 0.0
2014-Jul-23 20:33N 35°36' E 140°06'0 0.0
2014-Jul-23 19:34N 35°36' E 140°06'0 0.0
2014-Jul-23 18:33N 35°36' E 140°06'0 0.0
2014-Jul-23 17:34N 35°36' E 140°06'0 0.0
2014-Jul-23 16:34N 35°36' E 140°06'0 0.0
2014-Jul-23 15:33N 35°36' E 140°06'0 0.0
2014-Jul-23 14:33N 35°36' E 140°06'0 0.0
2014-Jul-23 13:34N 35°36' E 140°06'0 0.0
2014-Jul-23 12:33N 35°36' E 140°06'0 0.0
2014-Jul-23 11:33N 35°36' E 140°06'0 0.0
2014-Jul-23 10:33N 35°36' E 140°06'0 0.0
2014-Jul-23 09:33N 35°36' E 140°06'0 0.0
2014-Jul-23 08:34N 35°36' E 140°06'7 7.3
2014-Jul-23 07:33N 35°31' E 139°59'0 0.0
2014-Jul-23 06:33N 35°31' E 139°59'0 0.1
2014-Jul-23 05:33N 35°31' E 139°59'0 0.0
2014-Jul-23 04:33N 35°31' E 139°59'0 0.0
2014-Jul-23 03:33N 35°31' E 139°59'0 0.0
2014-Jul-23 02:34N 35°31' E 139°59'0 0.1
2014-Jul-23 01:33N 35°31' E 139°59'0 0.0
2014-Jul-23 00:34N 35°31' E 139°59'0 0.0
2014-Jul-22 23:33N 35°31' E 139°59'0 0.0
2014-Jul-22 22:33N 35°31' E 139°59'0 0.0
2014-Jul-22 21:33N 35°31' E 139°59'0 0.0
2014-Jul-22 20:34N 35°31' E 139°59'0 0.0
2014-Jul-22 19:34N 35°31' E 139°59'0 0.0
2014-Jul-22 18:34N 35°31' E 139°59'0 0.0
2014-Jul-22 17:33N 35°31' E 139°59'0 0.0
2014-Jul-22 16:33N 35°31' E 139°59'0 0.0
2014-Jul-22 15:33N 35°31' E 139°59'0 0.0
2014-Jul-22 14:33N 35°31' E 139°59'0 0.1
2014-Jul-22 13:33N 35°31' E 139°59'0 0.0
2014-Jul-22 12:33N 35°31' E 139°59'1 0.7
2014-Jul-22 11:34N 35°31' E 139°58'1312.9
2014-Jul-22 10:34N 35°23' E 139°46'1312.6
2014-Jul-22 09:33N 35°10' E 139°46'1313.3
2014-Jul-22 08:33N 34°60' E 139°37'1515.0
2014-Jul-22 07:33N 34°51' E 139°21'7 0.4
2014-Jul-21 14:14N 34°48' E 139°14'1810.7
2014-Jul-21 12:31N 34°60' E 139°31'1111.8
2014-Jul-21 11:33N 35°07' E 139°42'1111.1
2014-Jul-21 10:33N 35°18' E 139°44'1010.1
2014-Jul-21 09:33N 35°27' E 139°48'1111.1
2014-Jul-21 08:33N 35°30' E 140°01'1 0.9
2014-Jul-21 07:33N 35°30' E 140°02'0 0.0
2014-Jul-21 06:33N 35°30' E 140°02'2 1.6
2014-Jul-21 05:33N 35°30' E 139°60'1 1.4
2014-Jul-21 04:33N 35°31' E 139°58'0 0.0
2014-Jul-21 03:33N 35°31' E 139°58'0 0.0
2014-Jul-21 02:34N 35°31' E 139°58'0 0.0
2014-Jul-21 01:34N 35°31' E 139°58'4 3.6
2014-Jul-21 00:33N 35°29' E 139°55'1212.0
2014-Jul-20 23:34N 35°20' E 139°45'1212.1
2014-Jul-20 22:33N 35°08' E 139°45'1313.1
2014-Jul-20 21:34N 34°59' E 139°35'6414.3
2014-Jul-20 17:04N 34°26' E 138°28'  

Dump ship's entire track history